Flight Track Log - Related Links

Times and Time Zones

All times are in EDT time to prevent confusion due to time zone crossing. See the TAM3544 flight status page for this flight to view local times or setup timezone preferences in your user account.

Time Position Orientation Groundspeed Altitude Reporting Facility
EDT Latitude Longitude Course Direction KTS MPH feet Rate Location/Type
Thu 09:20:44 PM -23.4300 -46.4850 109° East 16 18  Level FlightAware ADS-B
Thu 09:20:59 PM -23.4310 -46.4840 137° Southeast 9 10 349 Level FlightAware ADS-B
Thu 09:21:20 PM -23.4320 -46.4840 180° South 4 5 361 Level FlightAware ADS-B
Thu 09:22:14 PM -23.4330 -46.4840 180° South 2 2 378 Level FlightAware ADS-B
Thu 09:24:00 PM -23.2225 -46.5052 355° North  Level Estimated
Thu 09:25:00 PM -23.1034 -46.5172 355° North  Level Estimated
Thu 09:26:00 PM -22.9842 -46.5291 355° North  Level Estimated
Thu 09:26:40 PM -23.4340 -46.4830 355° North 9 10  Level FlightAware ADS-B
Thu 09:27:19 PM -23.4340 -46.4820 90° East 1,344 Level FlightAware ADS-B
Thu 09:28:04 PM -23.4330 -46.4780 75° East 88 101 1,953 Level FlightAware ADS-B
Thu 09:28:19 PM -23.4310 -46.4690 76° East 145 167 4,098 Level FlightAware ADS-B
Thu 09:28:45 PM -23.4250 -46.4480 73° East 169 194 2,800 4,582 Climbing FlightAware ADS-B
Thu 09:29:14 PM -23.4180 -46.4250 72° East 157 181 4,200 2,291 Climbing FlightAware ADS-B
Thu 09:29:40 PM -23.4120 -46.4050 72° East 168 193 4,900 1,529 Climbing FlightAware ADS-B
Thu 09:30:05 PM -23.4050 -46.3820 72° East 199 229 5,500 1,333 Climbing FlightAware ADS-B
Thu 09:30:34 PM -23.3960 -46.3520 72° East 232 267 6,100 1,560 Climbing FlightAware ADS-B
Thu 09:30:55 PM -23.3780 -46.3360 39° Northeast 255 293 6,800 2,533 Climbing FlightAware ADS-B
Thu 09:31:19 PM -23.3520 -46.3220 26° Northeast 256 295 8,000 2,939 Climbing FlightAware ADS-B
Thu 09:31:44 PM -23.3230 -46.3060 27° Northeast 274 315 9,200 2,451 Climbing FlightAware ADS-B
Thu 09:32:30 PM -23.2710 -46.2740 29° Northeast 296 341 10,900 1,875 Climbing FlightAware ADS-B
Thu 09:33:20 PM -23.2040 -46.2350 28° Northeast 345 397 12,200 1,888 Climbing FlightAware ADS-B
Thu 09:33:59 PM -23.1470 -46.2030 27° Northeast 361 415 13,700 2,250 Climbing FlightAware ADS-B
Thu 09:34:40 PM -23.0830 -46.1750 22° Northeast 368 423 15,200 2,455 Climbing FlightAware ADS-B
Thu 09:35:05 PM -23.0370 -46.1810 353° North 376 433 16,400 2,438 Climbing FlightAware ADS-B
Thu 09:35:44 PM -22.9680 -46.1940 350° North 388 447 17,800 2,071 Climbing FlightAware ADS-B
Thu 09:36:29 PM -22.8860 -46.2070 352° North 398 458 19,300 1,875 Climbing FlightAware ADS-B
Thu 09:37:04 PM -22.8210 -46.2190 350° North 407 468 20,300 1,760 Climbing FlightAware ADS-B
Thu 09:37:44 PM -22.7480 -46.2310 351° North 415 478 21,500 1,800 Climbing FlightAware ADS-B
Thu 09:38:24 PM -22.6700 -46.2450 351° North 420 483 22,700 1,800 Climbing FlightAware ADS-B
Thu 09:39:04 PM -22.5930 -46.2580 351° North 425 489 23,900 1,605 Climbing FlightAware ADS-B
Thu 09:39:50 PM -22.5040 -46.2730 351° North 436 502 25,000 1,412 Climbing FlightAware ADS-B
Thu 09:40:29 PM -22.4250 -46.2870 351° North 446 513 25,900 1,357 Climbing FlightAware ADS-B
Thu 09:41:14 PM -22.3310 -46.3030 351° North 454 522 26,900 1,341 Climbing FlightAware ADS-B
Thu 09:41:54 PM -22.2490 -46.3160 352° North 460 529 27,800 1,275 Climbing FlightAware ADS-B
Thu 09:42:34 PM -22.1610 -46.3310 351° North 467 537 28,600 1,200 Climbing FlightAware ADS-B
Thu 09:43:14 PM -22.0760 -46.3460 351° North 474 545 29,400 1,341 Climbing FlightAware ADS-B
Thu 09:43:59 PM -21.9790 -46.3650 350° North 475 547 30,500 1,390 Climbing FlightAware ADS-B
Thu 09:44:36 PM -21.8980 -46.3800 350° North 475 547 31,300 1,400 Climbing FlightAware ADS-B
Thu 09:45:29 PM -21.7870 -46.3980 351° North 469 540 32,600 1,435 Climbing FlightAware ADS-B
Thu 09:46:08 PM -21.6990 -46.4120 352° North 468 539 33,500 1,280 Climbing FlightAware ADS-B
Thu 09:46:44 PM -21.6220 -46.4250 351° North 467 537 34,200 1,091 Climbing FlightAware ADS-B
Thu 09:47:25 PM -21.5360 -46.4390 351° North 467 537 34,900 900 Climbing FlightAware ADS-B
Thu 09:48:04 PM -21.4510 -46.4530 351° North 473 544 35,400 1,000 Climbing FlightAware ADS-B
Thu 09:48:49 PM -21.3540 -46.4690 351° North 467 537 36,300 1,067 Climbing FlightAware ADS-B
Thu 09:49:34 PM -21.2650 -46.4830 352° North 465 535 37,000 494 Climbing FlightAware ADS-B
Thu 09:50:14 PM -21.1740 -46.4980 351° North 473 544 37,000  Level FlightAware ADS-B
Thu 09:50:59 PM -21.0730 -46.5150 351° North 473 544 37,000  Level FlightAware ADS-B
Thu 09:51:34 PM -21.0000 -46.5270 351° North 472 543 37,000  Level FlightAware ADS-B
Thu 09:52:14 PM -20.9110 -46.5410 352° North 471 542 37,000  Level FlightAware ADS-B
Thu 09:53:00 PM -20.8120 -46.5570 351° North 470 541 37,000  Level FlightAware ADS-B
Thu 09:53:32 PM -20.7420 -46.5680 352° North 470 541 37,000  Level FlightAware ADS-B
Thu 09:54:16 PM -20.6470 -46.5840 351° North 471 542 37,000  Level FlightAware ADS-B
Thu 09:54:56 PM -20.5630 -46.5970 352° North 471 542 37,000  Level FlightAware ADS-B
Thu 09:55:40 PM -20.4660 -46.6140 351° North 471 542 37,000  Level FlightAware ADS-B
Thu 09:56:20 PM -20.3810 -46.6300 350° North 471 542 37,000  Level FlightAware ADS-B
Thu 09:57:04 PM -20.2860 -46.6470 350° North 471 542 37,000  Level FlightAware ADS-B
Thu 09:57:44 PM -20.2030 -46.6620 350° North 471 542 37,000  Level FlightAware ADS-B
Thu 09:58:19 PM -20.1250 -46.6760 350° North 472 543 37,000  Level FlightAware ADS-B
Thu 09:58:59 PM -20.0400 -46.6920 350° North 472 543 37,000  Level FlightAware ADS-B
Thu 09:59:44 PM -19.9480 -46.7090 350° North 473 544 37,000  Level FlightAware ADS-B
Thu 10:00:17 PM -19.8710 -46.7220 351° North 472 543 37,000  Level FlightAware ADS-B
Thu 10:01:03 PM -19.7690 -46.7410 350° North 472 543 37,000  Level FlightAware ADS-B
Thu 10:01:43 PM -19.6850 -46.7560 350° North 471 542 37,000  Level FlightAware ADS-B
Thu 10:02:21 PM -19.6020 -46.7710 350° North 471 542 37,000  Level FlightAware ADS-B
Thu 10:03:07 PM -19.5050 -46.7880 351° North 472 543 37,000  Level FlightAware ADS-B
Thu 10:03:47 PM -19.4160 -46.8040 350° North 470 541 37,000  Level FlightAware ADS-B
Thu 10:04:31 PM -19.3220 -46.8210 350° North 468 539 37,000  Level FlightAware ADS-B
Thu 10:05:07 PM -19.2460 -46.8350 350° North 466 536 37,000  Level FlightAware ADS-B
Thu 10:05:49 PM -19.1550 -46.8500 351° North 466 536 37,000  Level FlightAware ADS-B
Thu 10:06:29 PM -19.0710 -46.8630 352° North 465 535 37,000  Level FlightAware ADS-B
Thu 10:07:09 PM -18.9840 -46.8760 352° North 466 536 37,000  Level FlightAware ADS-B
Thu 10:07:45 PM -18.9070 -46.8880 352° North 466 536 37,000  Level FlightAware ADS-B
Thu 10:08:29 PM -18.8160 -46.9030 351° North 465 535 37,000  Level FlightAware ADS-B
Thu 10:09:26 PM -18.6970 -46.9200 352° North 464 534 37,000  Level FlightAware ADS-B
Thu 10:10:22 PM -18.5730 -46.9360 353° North 464 534 37,000  Level FlightAware ADS-B
Thu 10:11:09 PM -18.4820 -46.9490 352° North 464 534 37,000  Level FlightAware ADS-B
Thu 10:12:01 PM -18.3640 -46.9640 353° North 466 536 37,000  Level FlightAware ADS-B
Thu 10:12:32 PM -18.2940 -46.9740 352° North 467 537 37,000  Level FlightAware ADS-B
Thu 10:13:17 PM -18.1980 -46.9860 353° North 469 540 37,000  Level FlightAware ADS-B
Thu 10:13:56 PM -18.1160 -46.9970 353° North 471 542 37,000  Level FlightAware ADS-B
Thu 10:14:33 PM -18.0320 -47.0080 353° North 471 542 37,000  Level FlightAware ADS-B
Thu 10:15:17 PM -17.9360 -47.0210 353° North 472 543 37,000  Level FlightAware ADS-B
Thu 10:15:57 PM -17.8480 -47.0330 353° North 473 544 37,000  Level FlightAware ADS-B
Thu 10:16:33 PM -17.7710 -47.0430 353° North 473 544 37,000  Level FlightAware ADS-B
Thu 10:17:13 PM -17.6840 -47.0550 353° North 474 545 37,000  Level FlightAware ADS-B
Thu 10:17:55 PM -17.5940 -47.0670 353° North 474 545 37,000  Level FlightAware ADS-B
Thu 10:18:37 PM -17.5000 -47.0790 353° North 473 544 37,000  Level FlightAware ADS-B
Thu 10:19:19 PM -17.4070 -47.0910 353° North 471 542 37,000  Level FlightAware ADS-B
Thu 10:20:00 PM -17.3340 -47.1020 352° North 471 542 37,000  Level FlightAware ADS-B
Thu 10:21:00 PM -17.2240 -47.1180 352° North 471 542 37,000  Level FlightAware ADS-B
Thu 10:21:39 PM -17.1080 -47.1370 351° North 464 534 37,000  Level FlightAware ADS-B
Thu 10:22:19 PM -17.0250 -47.1530 350° North 463 533 37,000  Level FlightAware ADS-B
Thu 10:23:03 PM -16.9300 -47.1710 350° North 462 532 37,000  Level FlightAware ADS-B
Thu 10:23:43 PM -16.8440 -47.1870 350° North 463 533 37,000  Level FlightAware ADS-B
Thu 10:24:30 PM -16.7590 -47.2040 349° North 463 533 37,000  Level FlightAware ADS-B
Thu 10:25:53 PM -16.5680 -47.2380 350° North 464 534 37,000  Level FlightAware ADS-B
Thu 10:26:33 PM -16.4850 -47.2530 350° North 464 534 37,000  Level FlightAware ADS-B
Thu 10:27:17 PM -16.3930 -47.2700 350° North 463 533 37,000  Level FlightAware ADS-B
Thu 10:27:55 PM -16.3140 -47.2840 350° North 463 533 37,000  Level FlightAware ADS-B
Thu 10:28:33 PM -16.2300 -47.3000 350° North 462 532 37,000  Level FlightAware ADS-B
Thu 10:29:13 PM -16.1470 -47.3150 350° North 462 532 37,000  Level FlightAware ADS-B
Thu 10:29:55 PM -16.0580 -47.3310 350° North 462 532 37,000  Level FlightAware ADS-B
Thu 10:30:38 PM -15.9660 -47.3480 350° North 464 534 37,000  Level FlightAware ADS-B
Thu 10:31:21 PM -15.8780 -47.3640 350° North 464 534 37,000  Level FlightAware ADS-B
Thu 10:32:00 PM -15.7940 -47.3790 350° North 467 537 37,000  Level FlightAware ADS-B
Thu 10:32:45 PM -15.6970 -47.3970 350° North 468 539 37,000  Level FlightAware ADS-B
Thu 10:33:22 PM -15.6180 -47.4110 350° North 468 539 37,000  Level FlightAware ADS-B
Thu 10:34:01 PM -15.5340 -47.4270 350° North 468 539 37,000  Level FlightAware ADS-B
Thu 10:34:45 PM -15.4400 -47.4440 350° North 467 537 37,000  Level FlightAware ADS-B
Thu 10:35:18 PM -15.3700 -47.4560 351° North 466 536 37,000  Level FlightAware ADS-B
Thu 10:36:03 PM -15.2750 -47.4740 350° North 465 535 37,000  Level FlightAware ADS-B
Thu 10:36:43 PM -15.1910 -47.4890 350° North 466 536 37,000 442 Level FlightAware ADS-B
Thu 10:37:38 PM -15.0740 -47.5100 350° North 465 535 37,700 429 Climbing FlightAware ADS-B
Thu 10:39:03 PM -14.8940 -47.5430 350° North 456 525 38,000 144 Climbing FlightAware ADS-B
Thu 10:39:43 PM -14.8210 -47.5560 350° North 458 527 38,000  Level FlightAware ADS-B
Thu 10:40:25 PM -14.7240 -47.5730 350° North 459 528 38,000  Level FlightAware ADS-B
Thu 10:41:06 PM -14.6380 -47.5890 350° North 460 529 38,000  Level FlightAware ADS-B
Thu 10:41:51 PM -14.5450 -47.6050 351° North 461 531 38,000  Level FlightAware ADS-B
Thu 10:42:36 PM -14.4530 -47.6220 350° North 462 532 38,000  Level FlightAware ADS-B
Thu 10:43:13 PM -14.3710 -47.6370 350° North 461 531 38,000  Level FlightAware ADS-B
Thu 10:43:53 PM -14.2860 -47.6520 350° North 460 529 38,000  Level FlightAware ADS-B
Thu 10:45:28 PM -14.0920 -47.6870 350° North 461 531 38,000  Level FlightAware ADS-B
Thu 10:46:08 PM -14.0040 -47.7020 351° North 460 529 38,000  Level FlightAware ADS-B
Thu 10:47:18 PM 0.0480 -0.0080 78° East 459 528 38,000  Level FlightAware ADS-B
Thu 10:48:06 PM 0.1330 -0.0240 349° North 459 528 38,000  Level FlightAware ADS-B
Thu 10:48:42 PM 0.1970 -0.0350 350° North 459 528 38,000  Level FlightAware ADS-B
Thu 10:49:30 PM 0.2830 -0.0500 350° North 459 528 38,000  Level FlightAware ADS-B
Thu 10:50:06 PM 0.3470 -0.0610 350° North 459 528 38,000  Level FlightAware ADS-B
Thu 10:51:06 PM 0.4530 -0.0800 350° North 459 528 38,000  Level FlightAware ADS-B
Thu 10:51:42 PM 0.5170 -0.0910 350° North 459 528 38,000  Level FlightAware ADS-B
Thu 10:52:30 PM 0.6030 -0.1060 350° North 459 528 38,000  Level FlightAware ADS-B
Thu 10:53:06 PM 0.6670 -0.1180 349° North 459 528 38,000  Level FlightAware ADS-B
Thu 10:53:54 PM 0.7520 -0.1330 350° North 459 528 38,000  Level FlightAware ADS-B
Thu 10:54:33 PM 0.8210 -0.1450 350° North 459 528 38,000  Level FlightAware ADS-B
Thu 10:55:46 PM 0.9510 -0.1680 350° North 459 528 38,000  Level FlightAware ADS-B
Thu 10:56:23 PM 1.0170 -0.1790 351° North 459 528 38,000  Level FlightAware ADS-B
Thu 10:58:00 PM 1.0082 -0.3623 267° West  Level Estimated
Thu 10:59:00 PM 1.0027 -0.4757 267° West  Level Estimated
Thu 11:00:00 PM 0.9973 -0.5891 267° West  Level Estimated
Thu 11:01:00 PM 0.9918 -0.7025 267° West  Level Estimated
Thu 11:02:00 PM 0.9863 -0.8159 267° West  Level Estimated
Thu 11:03:00 PM 0.9809 -0.9293 267° West  Level Estimated
Thu 11:04:00 PM 0.9754 -1.0427 267° West  Level Estimated
Thu 11:05:00 PM 0.9699 -1.1561 267° West  Level Estimated
Thu 11:06:00 PM 0.9644 -1.2695 267° West  Level Estimated
Thu 11:07:00 PM 0.9589 -1.3829 267° West  Level Estimated
Thu 11:08:00 PM 0.9534 -1.4963 267° West  Level Estimated
Thu 11:08:57 PM -11.1510 -48.2080 267° West 457 526 38,000  Level FlightAware ADS-B
Thu 11:09:00 PM 0.9479 -1.6097 267° West  Level Estimated
Thu 11:09:37 PM -11.0620 -48.2230 351° North 457 526 38,000  Level FlightAware ADS-B
Thu 11:11:25 PM -10.9370 -48.2450 350° North 455 524 38,000  Level FlightAware ADS-B
Thu 11:12:19 PM -10.7270 -48.2820 350° North 455 524 38,000  Level FlightAware ADS-B
Thu 11:13:16 PM -10.7210 -48.2830 351° North 456 525 38,000  Level FlightAware ADS-B
Thu 11:14:08 PM -10.5070 -48.3200 350° North 457 526 38,000  Level FlightAware ADS-B
Thu 11:14:57 PM -10.4860 -48.3240 349° North 458 527 38,000  Level FlightAware ADS-B
Thu 11:15:54 PM -10.4900 -48.3230 166° South 458 527 38,000  Level FlightAware ADS-B
Thu 11:16:30 PM -10.4260 -48.3350 350° North 458 527 38,000  Level FlightAware ADS-B
Thu 11:17:19 PM -10.3390 -48.3500 350° North 458 527 38,000  Level FlightAware ADS-B
Thu 11:17:55 PM -10.2750 -48.3620 350° North 458 527 38,000  Level FlightAware ADS-B
Thu 11:18:43 PM -10.1900 -48.3770 350° North 458 527 38,000  Level FlightAware ADS-B
Thu 11:19:20 PM -10.1240 -48.3890 350° North 458 527 38,000  Level FlightAware ADS-B
Thu 11:19:54 PM -10.0640 -48.4000 350° North 458 527 38,000  Level FlightAware ADS-B
Thu 11:20:41 PM -10.5360 -48.3150 170° South 38,000  Level FlightAware ADS-B
Thu 11:23:00 PM -10.2731 -48.3197 359° North  Level Estimated
Thu 11:23:27 PM -9.3630 -48.3710 359° North 459 528 38,000  Level FlightAware ADS-B
Thu 11:24:00 PM -10.1596 -48.3218 359° North  Level Estimated
Thu 11:24:25 PM -9.1770 -48.3740 359° North 459 528 38,000  Level FlightAware ADS-B
Thu 11:25:06 PM -9.0990 -48.3750 359° North 459 528 38,000  Level FlightAware ADS-B
Thu 11:25:43 PM -9.0320 -48.3760 359° North 459 528 38,000  Level FlightAware ADS-B
Thu 11:26:31 PM -9.0790 -48.3750 179° South 461 531 38,000  Level FlightAware ADS-B
Thu 11:27:07 PM -9.0140 -48.3760 359° North 461 531 38,000  Level FlightAware ADS-B
Thu 11:27:55 PM -8.9270 -48.3780 359° North 461 531 38,000  Level FlightAware ADS-B
Thu 11:28:31 PM -8.8610 -48.3790 359° North 461 531 38,000  Level FlightAware ADS-B
Thu 11:29:07 PM -8.7960 -48.3800 359° North 461 531 38,000  Level FlightAware ADS-B
Thu 11:29:55 PM -8.7090 -48.3820 359° North 461 531 38,000  Level FlightAware ADS-B
Thu 11:30:31 PM -8.6440 -48.3830 359° North 461 531 38,000  Level FlightAware ADS-B
Thu 11:31:08 PM -8.5770 -48.3840 359° North 461 531 38,000  Level FlightAware ADS-B
Thu 11:31:56 PM -8.4900 -48.3860 359° North 461 531 38,000  Level FlightAware ADS-B
Thu 11:32:32 PM -8.4240 -48.3870 359° North 461 531 38,000  Level FlightAware ADS-B
Thu 11:33:22 PM -8.3340 -48.3880 359° North 461 531 38,000  Level FlightAware ADS-B
Thu 11:33:58 PM -8.2690 -48.3890 359° North 461 531 38,000  Level FlightAware ADS-B
Thu 11:34:46 PM -8.1820 -48.3910 359° North 461 531 38,000  Level FlightAware ADS-B
Thu 11:35:34 PM -8.0950 -48.3920 359° North 461 531 38,000 -347 Level FlightAware ADS-B
Thu 11:38:00 PM -7.8188 -48.3955 359° North  Level Estimated
Thu 11:39:00 PM -7.7053 -48.3969 359° North  Level Estimated
Thu 11:40:00 PM -7.5918 -48.3984 359° North  Level Estimated
Thu 11:41:00 PM -7.4783 -48.3998 359° North  Level Estimated
Thu 11:42:00 PM -7.3648 -48.4013 359° North  Level Estimated
Thu 11:43:00 PM -7.2513 -48.4027 359° North  Level Estimated
Thu 11:44:00 PM -7.1378 -48.4041 359° North  Level Estimated
Thu 11:45:00 PM -7.0243 -48.4056 359° North  Level Estimated
Thu 11:46:00 PM -6.9108 -48.4070 359° North  Level Estimated
Thu 11:47:00 PM -6.7973 -48.4084 359° North  Level Estimated
Thu 11:48:00 PM -6.6838 -48.4099 359° North  Level Estimated
Thu 11:49:00 PM -6.5703 -48.4113 359° North  Level Estimated
Thu 11:50:00 PM -6.4568 -48.4127 359° North  Level Estimated
Thu 11:51:00 PM -6.3433 -48.4142 359° North  Level Estimated
Thu 11:52:00 PM -6.2298 -48.4156 359° North  Level Estimated
Thu 11:53:00 PM -6.1163 -48.4170 359° North  Level Estimated
Thu 11:54:00 PM -6.0028 -48.4184 359° North  Level Estimated
Thu 11:55:00 PM -5.8893 -48.4199 359° North  Level Estimated
Thu 11:56:00 PM -5.7758 -48.4213 359° North  Level Estimated
Thu 11:57:00 PM -5.6623 -48.4227 359° North  Level Estimated
Thu 11:58:00 PM -5.5488 -48.4242 359° North  Level Estimated
Thu 11:59:00 PM -5.4353 -48.4256 359° North  Level Estimated
Fri 12:00:00 AM -5.3218 -48.4270 359° North  Level Estimated
Fri 12:01:00 AM -5.2083 -48.4285 359° North  Level Estimated
Fri 12:02:00 AM -5.0948 -48.4299 359° North  Level Estimated
Fri 12:03:00 AM -4.9813 -48.4313 359° North  Level Estimated
Fri 12:04:00 AM -4.8678 -48.4327 359° North  Level Estimated
Fri 12:05:00 AM -4.7543 -48.4341 359° North  Level Estimated
Fri 12:06:00 AM -4.6408 -48.4356 359° North  Level Estimated
Fri 12:07:00 AM -4.5273 -48.4370 359° North  Level Estimated
Fri 12:08:00 AM -4.4138 -48.4384 359° North  Level Estimated
Fri 12:09:00 AM -4.3003 -48.4398 359° North  Level Estimated
Fri 12:10:00 AM -4.1868 -48.4412 359° North  Level Estimated
Fri 12:11:00 AM -4.0733 -48.4426 359° North  Level Estimated
Fri 12:12:00 AM -3.9598 -48.4441 359° North  Level Estimated
Fri 12:13:00 AM -3.8463 -48.4455 359° North  Level Estimated
Fri 12:14:00 AM -3.7328 -48.4469 359° North  Level Estimated
Fri 12:14:18 AM -2.7030 -48.4700 359° North 458 527 24,300  Level FlightAware ADS-B
Fri 12:15:00 AM -3.6193 -48.4483 359° North  Level Estimated
Fri 12:15:56 AM -2.5000 -48.4930 354° North 430 495 19,600  Level FlightAware ADS-B
Fri 12:16:00 AM -3.5058 -48.4497 359° North  Level Estimated
Fri 12:16:46 AM -2.5000 -48.4930 354° North 415 478 17,200  Level FlightAware ADS-B
Fri 12:17:11 AM -2.3490 -48.5100 354° North 414 476 15,800 -2,829 Descending FlightAware ADS-B
Fri 12:17:56 AM -2.2640 -48.5190 354° North 400 460 13,900 -2,225 Descending FlightAware ADS-B
Fri 12:18:40 AM -2.1880 -48.5280 353° North 378 435 12,500 -2,296 Descending FlightAware ADS-B
Fri 12:19:17 AM -2.1160 -48.5360 354° North 375 432 10,800 -1,683 Descending FlightAware ADS-B
Fri 12:20:02 AM -2.0430 -48.5440 354° North 335 386 10,200 -750 Descending FlightAware ADS-B
Fri 12:20:37 AM -1.9920 -48.5500 353° North 312 359 9,800 -900 Descending FlightAware ADS-B
Fri 12:21:02 AM -1.9580 -48.5540 353° North 303 349 9,300 -1,375 Descending FlightAware ADS-B
Fri 12:21:25 AM -1.9210 -48.5580 354° North 299 344 8,700 -1,385 Descending FlightAware ADS-B
Fri 12:21:41 AM -1.9050 -48.5590 356° North 294 338 8,400 -1,171 Descending FlightAware ADS-B
Fri 12:22:06 AM -1.8710 -48.5630 353° North 290 334 7,900 -1,469 Descending FlightAware ADS-B
Fri 12:22:30 AM -1.8380 -48.5670 353° North 288 331 7,200 -1,543 Descending FlightAware ADS-B
Fri 12:22:41 AM -1.8260 -48.5680 355° North 288 331 7,000 -1,600 Descending FlightAware ADS-B
Fri 12:23:15 AM -1.7780 -48.5740 353° North 289 333 6,000 -1,831 Descending FlightAware ADS-B
Fri 12:23:40 AM -1.7420 -48.5780 354° North 290 334 5,200 -1,886 Descending FlightAware ADS-B
Fri 12:23:50 AM -1.7300 -48.5790 355° North 292 336 4,900 -1,435 Descending FlightAware ADS-B
Fri 12:24:26 AM -1.6810 -48.5840 354° North 288 331 4,100 -1,180 Descending FlightAware ADS-B
Fri 12:24:51 AM -1.6480 -48.5880 353° North 279 321 3,700 -792 Descending FlightAware ADS-B
Fri 12:25:19 AM -1.6140 -48.5920 353° North 260 299 3,400 -558 Descending FlightAware ADS-B
Fri 12:25:34 AM -1.5940 -48.5940 354° North 250 288 3,300 -480 Descending FlightAware ADS-B
Fri 12:25:44 AM -1.5840 -48.5950 354° North 243 280 3,200 -585 Descending FlightAware ADS-B
Fri 12:26:15 AM -1.5490 -48.5990 353° North 229 264 2,900 -667 Descending FlightAware ADS-B
Fri 12:26:29 AM -1.5320 -48.6010 353° North 226 260 2,700 -792 Descending FlightAware ADS-B
Fri 12:27:08 AM -1.4970 -48.5940 11° North 203 234 2,200 -655 Descending FlightAware ADS-B
Fri 12:27:24 AM -1.4930 -48.5900 45° Northeast 199 229 2,100 -250 Descending FlightAware ADS-B
Fri 12:27:56 AM -1.4680 -48.5650 45° Northeast 174 200 2,000 -327 Descending FlightAware ADS-B
Fri 12:28:19 AM -1.4570 -48.5550 42° Northeast 159 183 1,800 -679 Descending FlightAware ADS-B
Fri 12:28:49 AM -1.4400 -48.5380 45° Northeast 137 158 1,400 -750 Descending FlightAware ADS-B
Fri 12:28:59 AM -1.4350 -48.5330 45° Northeast 137 158 1,300 -732 Descending FlightAware ADS-B
Fri 12:29:30 AM -1.4220 -48.5190 47° Northeast 130 150 900 -638 Descending FlightAware ADS-B
Fri 12:29:46 AM -1.4160 -48.5130 45° Northeast 130 150 800 -545 Descending FlightAware ADS-B
Fri 12:30:03 AM -1.4060 -48.5030 45° Northeast 130 150 600 -632 Descending FlightAware ADS-B
Fri 12:30:24 AM -1.3990 -48.4960 45° Northeast 130 150 400 -571 Descending FlightAware ADS-B
Fri 12:31:04 AM -1.3820 -48.4790 45° Northeast 120 138 -600 Descending FlightAware ADS-B
Fri 12:31:37 AM -1.3730 -48.4700 45° Northeast 115 132  Level FlightAware ADS-B
Fri 12:33:17 AM -1.3850 -48.4770 210° Southwest 16 18  Level FlightAware ADS-B
Fri 12:33:28 AM -1.3860 -48.4770 180° South 14 16  Level FlightAware ADS-B
Fri 12:33:55 AM -1.3880 -48.4770 180° South 16 18  Level FlightAware ADS-B
Fri 12:34:13 AM -1.3890 -48.4770 180° South 14 16  Level FlightAware ADS-B
Fri 12:34:23 AM -1.3900 -48.4770 180° South 15 17  Level FlightAware ADS-B
Fri 12:35:04 AM -1.3900 -48.4790 270° West 9 10  Level FlightAware ADS-B
Fri 12:37:00 AM -1.3793 -48.4763 14° North  Level Estimated
Fri 12:38:00 AM -1.3793 -48.4763 270° West  Level Estimated
Fri 12:39:00 AM -1.3793 -48.4763 270° West  Level Estimated
Fri 12:40:00 AM -1.3793 -48.4763 270° West  Level Estimated
Fri 12:41:00 AM -1.3793 -48.4763 270° West  Level Estimated
Fri 12:42:00 AM -1.3793 -48.4763 270° West  Level Estimated
Fri 12:43:00 AM -1.3793 -48.4763 270° West  Level Estimated

Login

Don't have an account? Register now (free) for customized features, flight alerts, and more!